createdAt,value
2023-05-14T00:00:26.377Z,3.9
2023-05-14T00:01:26.779Z,3.5
2023-05-14T00:02:27.454Z,4
2023-05-14T00:03:27.509Z,3.5
2023-05-14T00:04:27.882Z,3.7
2023-05-14T00:05:28.202Z,4
2023-05-14T00:06:28.563Z,3.9
2023-05-14T00:07:28.868Z,3.6
2023-05-14T00:08:29.391Z,3.9
2023-05-14T00:09:30.116Z,4.1
2023-05-14T00:10:30.023Z,3.9
2023-05-14T00:11:30.551Z,4
2023-05-14T00:12:30.701Z,3.8
2023-05-14T00:13:30.951Z,4
2023-05-14T00:14:31.673Z,3.6
2023-05-14T00:15:34.210Z,3.9
2023-05-14T00:16:32.146Z,3.8
2023-05-14T00:17:32.383Z,3.7
2023-05-14T00:18:33.319Z,3.6
2023-05-14T00:19:33.210Z,3.6
2023-05-14T00:20:33.425Z,4.5
2023-05-14T00:21:33.988Z,4.2
2023-05-14T00:22:35.026Z,3.9
2023-05-14T00:23:34.806Z,3.8
2023-05-14T00:24:35.744Z,3.8
2023-05-14T00:25:35.607Z,4
2023-05-14T00:26:35.851Z,3.8
2023-05-14T00:27:36.586Z,3.9
2023-05-14T00:28:36.501Z,3.5
2023-05-14T00:29:37.002Z,3.8
2023-05-14T00:30:37.110Z,3.8
2023-05-14T00:31:37.745Z,3.8
2023-05-14T00:32:37.936Z,4.1
2023-05-14T00:33:38.267Z,4
2023-05-14T00:34:38.530Z,4.3
2023-05-14T00:35:39.094Z,3.9
2023-05-14T00:36:39.331Z,3.8
2023-05-14T00:37:39.623Z,4.3
2023-05-14T00:38:40.040Z,3.9
2023-05-14T00:39:40.342Z,3.7
2023-05-14T00:40:41.278Z,3.7
2023-05-14T00:41:41.174Z,3.7
2023-05-14T00:42:41.386Z,3.9
2023-05-14T00:43:41.917Z,4.2
2023-05-14T00:44:42.175Z,3.8
2023-05-14T00:45:42.852Z,4.1
2023-05-14T00:46:42.982Z,4.4
2023-05-14T00:47:44.105Z,4
2023-05-14T00:48:45.168Z,4.3
2023-05-14T00:49:44.317Z,3.9
2023-05-14T00:50:44.633Z,4.2
2023-05-14T00:51:45.051Z,3.5
2023-05-14T00:52:45.142Z,4.1
2023-05-14T00:53:46.581Z,4.1
2023-05-14T00:54:47.978Z,4.1
2023-05-14T00:55:47.203Z,3.6
2023-05-14T00:56:47.363Z,3.4
2023-05-14T00:57:47.126Z,3.7
2023-05-14T00:58:47.230Z,3.8
2023-05-14T00:59:47.767Z,4.1
2023-05-14T01:00:47.874Z,3.6
2023-05-14T01:01:48.060Z,3.9
2023-05-14T01:02:48.802Z,3.7
2023-05-14T01:03:49.359Z,3.8
2023-05-14T01:04:50.051Z,4.3
2023-05-14T01:10:15.871Z,3.7
2023-05-14T01:15:31.690Z,3.5
2023-05-14T01:16:20.710Z,3.4
2023-05-14T01:17:22.058Z,3.7
2023-05-14T01:18:20.731Z,4
2023-05-14T01:20:22.723Z,3.8
2023-05-14T01:22:26.806Z,3.9
2023-05-14T01:23:27.168Z,3.6
2023-05-14T01:24:27.552Z,3.9
2023-05-14T01:25:29.179Z,3.9
2023-05-14T01:26:28.211Z,3.6
2023-05-14T01:28:33.920Z,4.3
2023-05-14T01:29:34.216Z,3.7
2023-05-14T01:31:36.835Z,3.8
2023-05-14T01:32:34.526Z,3.8
2023-05-14T01:33:36.712Z,3.6
2023-05-14T01:34:37.647Z,4
2023-05-14T01:35:35.617Z,3.7
2023-05-14T01:36:36.309Z,4
2023-05-14T01:37:38.477Z,4
2023-05-14T01:38:37.569Z,3.8
2023-05-14T01:39:38.116Z,4
2023-05-14T01:40:37.599Z,4.3
2023-05-14T01:41:38.492Z,3.8
2023-05-14T01:42:38.860Z,3.5
2023-05-14T01:43:39.352Z,3.9
2023-05-14T01:44:38.623Z,3.8
2023-05-14T01:45:38.905Z,4
2023-05-14T01:46:39.534Z,4.4
2023-05-14T01:47:39.534Z,4.4
2023-05-14T01:48:39.976Z,3.9
2023-05-14T01:49:40.598Z,4.4
2023-05-14T01:50:40.925Z,4.1
2023-05-14T01:51:40.956Z,3.6
2023-05-14T01:52:41.442Z,4
2023-05-14T01:53:41.761Z,3.8
2023-05-14T01:54:41.962Z,4.5
2023-05-14T01:55:42.378Z,4.3
2023-05-14T01:56:42.813Z,3.9
2023-05-14T01:57:43.211Z,3.9
2023-05-14T01:58:43.527Z,3.9
2023-05-14T01:59:43.736Z,3.9
2023-05-14T02:00:44.149Z,4.3
2023-05-14T02:01:44.602Z,4
2023-05-14T02:02:44.888Z,4.1
2023-05-14T02:03:45.389Z,4
2023-05-14T02:04:45.610Z,4.9
2023-05-14T02:05:45.831Z,5.2
2023-05-14T02:06:46.232Z,4.2
2023-05-14T02:07:46.656Z,4.5
2023-05-14T02:08:47.103Z,4.8
2023-05-14T02:09:47.277Z,4.4
2023-05-14T02:10:47.713Z,4.3
2023-05-14T02:11:47.927Z,4.1
2023-05-14T02:12:48.418Z,3.9
2023-05-14T02:13:48.907Z,4.4
2023-05-14T02:14:49.040Z,4.5
2023-05-14T02:15:49.775Z,4.4
2023-05-14T02:16:50.106Z,4
2023-05-14T02:17:50.258Z,4.3
2023-05-14T02:18:50.621Z,4.6
2023-05-14T02:19:50.847Z,4.4
2023-05-14T02:20:51.149Z,3.9
2023-05-14T02:21:51.454Z,4
2023-05-14T02:22:51.996Z,4
2023-05-14T02:23:52.296Z,4.5
2023-05-14T02:24:52.663Z,4.1
2023-05-14T02:25:52.933Z,4
2023-05-14T02:26:53.352Z,4.3
2023-05-14T02:27:53.599Z,4.2
2023-05-14T02:28:53.967Z,5.2
2023-05-14T02:29:54.291Z,4
2023-05-14T02:30:59.431Z,4.2
2023-05-14T02:31:57.465Z,4.3
2023-05-14T02:32:57.444Z,4.5
2023-05-14T02:33:57.532Z,3.9
2023-05-14T02:34:57.896Z,4.2
2023-05-14T02:35:58.235Z,3.9
2023-05-14T02:36:58.633Z,4.1
2023-05-14T02:37:58.836Z,4
2023-05-14T02:39:00.595Z,4.2
2023-05-14T02:39:59.776Z,4.4
2023-05-14T02:40:59.883Z,4.1
2023-05-14T02:42:00.408Z,4
2023-05-14T02:43:00.616Z,3.9
2023-05-14T02:44:01.034Z,4.2
2023-05-14T02:45:01.456Z,3.9
2023-05-14T02:46:01.758Z,4.6
2023-05-14T02:47:02.448Z,4.1
2023-05-14T02:48:02.458Z,3.8
2023-05-14T02:49:03.018Z,3.9
2023-05-14T02:50:03.425Z,4.3
2023-05-14T02:51:04.048Z,4.1
2023-05-14T02:52:04.363Z,4
2023-05-14T02:53:04.272Z,3.7
2023-05-14T02:54:05.096Z,4.1
2023-05-14T02:55:05.614Z,3.8
2023-05-14T02:56:05.720Z,3.9
2023-05-14T02:57:05.715Z,4.2
2023-05-14T02:58:05.942Z,4.2
2023-05-14T02:59:06.455Z,3.8
2023-05-14T03:00:08.011Z,3.8
2023-05-14T03:01:07.566Z,3.8
2023-05-14T03:02:07.382Z,4.3
2023-05-14T03:03:07.735Z,4.3
2023-05-14T03:04:08.020Z,3.7
2023-05-14T03:05:09.079Z,3.6
2023-05-14T03:06:08.645Z,3.8
2023-05-14T03:07:09.166Z,3.9
2023-05-14T03:08:09.494Z,4
2023-05-14T03:09:10.098Z,3.8
2023-05-14T03:10:10.825Z,4
2023-05-14T03:11:10.544Z,4.1
2023-05-14T03:12:11.148Z,4.3
2023-05-14T03:13:11.263Z,3.6
2023-05-14T03:14:11.899Z,3.7
2023-05-14T03:15:12.116Z,4.2
2023-05-14T03:16:12.244Z,4.3
2023-05-14T03:17:12.867Z,3.8
2023-05-14T03:18:13.584Z,3.7
2023-05-14T03:19:13.568Z,3.7
2023-05-14T03:20:13.722Z,3.9
2023-05-14T03:21:14.065Z,4.2
2023-05-14T03:22:14.758Z,3.8
2023-05-14T03:23:15.439Z,3.6
2023-05-14T03:24:15.214Z,3.8
2023-05-14T03:25:15.540Z,4
2023-05-14T03:26:16.070Z,4
2023-05-14T03:27:16.390Z,4.2
2023-05-14T03:28:16.489Z,3.9
2023-05-14T03:29:17.005Z,4
2023-05-14T03:30:17.631Z,4.1
2023-05-14T03:31:17.766Z,4
2023-05-14T03:32:18.164Z,3.8
2023-05-14T03:33:18.348Z,3.8
2023-05-14T03:34:18.770Z,4.2
2023-05-14T03:35:19.404Z,3.8
2023-05-14T03:36:19.405Z,3.7
2023-05-14T03:37:20.118Z,3.8
2023-05-14T03:38:20.192Z,3.8
2023-05-14T03:39:20.749Z,3.7
2023-05-14T03:40:21.014Z,4
2023-05-14T03:41:21.389Z,3.8
2023-05-14T03:42:21.706Z,4
2023-05-14T03:43:22.106Z,3.9
2023-05-14T03:44:22.420Z,3.6
2023-05-14T03:45:22.843Z,3.5
2023-05-14T03:46:23.250Z,3.6
2023-05-14T03:47:23.512Z,3.6
2023-05-14T03:48:23.957Z,3.8
2023-05-14T03:49:25.630Z,4
2023-05-14T03:50:24.719Z,4.3
2023-05-14T03:51:24.927Z,3.9
2023-05-14T03:52:25.391Z,4
2023-05-14T03:53:25.666Z,3.9
2023-05-14T03:54:26.714Z,3.5
2023-05-14T03:55:26.483Z,3.9
2023-05-14T03:56:26.994Z,4
2023-05-14T03:57:27.228Z,3.7
2023-05-14T03:58:27.679Z,4.3
2023-05-14T03:59:28.397Z,3.9
2023-05-14T04:00:28.688Z,4
2023-05-14T04:01:28.697Z,3.7
2023-05-14T04:02:29.155Z,3.8
2023-05-14T04:03:29.561Z,4.1
2023-05-14T04:04:30.069Z,3.4
2023-05-14T04:05:30.160Z,3.6
2023-05-14T04:06:30.572Z,4.2
2023-05-14T04:07:30.909Z,3.7
2023-05-14T04:08:31.299Z,4.1
2023-05-14T04:09:32.105Z,4
2023-05-14T04:10:32.116Z,4.1
2023-05-14T04:11:32.530Z,3.6
2023-05-14T04:12:32.950Z,3.7
2023-05-14T04:13:33.364Z,3.6
2023-05-14T04:14:33.774Z,3.2
2023-05-14T04:15:33.982Z,3.7
2023-05-14T04:16:34.612Z,4.2
2023-05-14T04:17:35.353Z,3.2
2023-05-14T04:18:35.234Z,3.4
2023-05-14T04:19:35.752Z,3.7
2023-05-14T04:20:35.993Z,3.4
2023-05-14T04:21:36.286Z,3.7
2023-05-14T04:22:36.794Z,3.6
2023-05-14T04:23:37.215Z,3.3
2023-05-14T04:24:37.535Z,3.6
2023-05-14T04:25:38.060Z,3.4
2023-05-14T04:26:38.369Z,3.7
2023-05-14T04:27:38.524Z,3.9
2023-05-14T04:28:39.019Z,3.4
2023-05-14T04:29:39.356Z,3.7
2023-05-14T04:30:39.709Z,3.4
2023-05-14T04:31:40.371Z,3.4
2023-05-14T04:32:40.694Z,3.5
2023-05-14T04:33:41.013Z,3.4
2023-05-14T04:34:41.455Z,3.1
2023-05-14T04:35:42.011Z,3.3
2023-05-14T04:36:42.334Z,3.2
2023-05-14T04:37:42.530Z,3.5
2023-05-14T04:38:43.046Z,3.3
2023-05-14T04:39:43.591Z,3.7
2023-05-14T04:40:43.812Z,3.2
2023-05-14T04:41:44.292Z,3.5
2023-05-14T04:42:44.560Z,3.4
2023-05-14T04:43:44.865Z,3.5
2023-05-14T04:44:45.373Z,3.3
2023-05-14T04:45:45.873Z,3.4
2023-05-14T04:46:46.580Z,3.1
2023-05-14T04:47:46.979Z,3.1
2023-05-14T04:48:47.114Z,3.2
2023-05-14T04:49:47.431Z,3.3
2023-05-14T04:50:47.738Z,3.5
2023-05-14T04:51:48.265Z,3.2
2023-05-14T04:52:48.788Z,3.7
2023-05-14T04:53:49.090Z,3.2
2023-05-14T04:54:49.496Z,3.2
2023-05-14T04:55:49.813Z,2.9
2023-05-14T04:56:50.768Z,3.5
2023-05-14T04:57:50.650Z,3.1
2023-05-14T04:58:51.057Z,3.3
2023-05-14T04:59:51.517Z,3.4
2023-05-14T05:00:51.907Z,3
2023-05-14T05:01:52.219Z,3.3
2023-05-14T05:02:52.752Z,2.9
2023-05-14T05:03:53.245Z,3
2023-05-14T05:04:53.678Z,2.7
2023-05-14T05:05:54.076Z,2.9
2023-05-14T05:06:54.256Z,3.3
2023-05-14T05:07:55.240Z,3
2023-05-14T05:08:56.168Z,3
2023-05-14T05:09:55.754Z,3.1
2023-05-14T05:10:55.974Z,2.8
2023-05-14T05:11:56.272Z,3.2
2023-05-14T05:12:56.896Z,3.3
2023-05-14T05:13:57.205Z,3.1
2023-05-14T05:14:58.665Z,3.2
2023-05-14T05:15:58.336Z,3.1
2023-05-14T05:16:58.378Z,3.2
2023-05-14T05:17:59.389Z,3
2023-05-14T05:18:59.233Z,3.1
2023-05-14T05:19:59.763Z,3
2023-05-14T05:21:00.029Z,3.1
2023-05-14T05:22:00.659Z,3.1
2023-05-14T05:23:01.071Z,3.5
2023-05-14T05:24:01.373Z,3.1
2023-05-14T05:25:02.201Z,2.9
2023-05-14T05:26:02.529Z,3.3
2023-05-14T05:27:02.529Z,3
2023-05-14T05:28:03.160Z,3.3
2023-05-14T05:29:06.524Z,3.3
2023-05-14T05:30:04.895Z,3.2
2023-05-14T05:31:04.955Z,3.1
2023-05-14T05:32:05.724Z,2.9
2023-05-14T05:33:05.235Z,3.2
2023-05-14T05:34:05.634Z,2.9
2023-05-14T05:35:07.079Z,3.2
2023-05-14T05:36:07.197Z,3
2023-05-14T05:37:07.086Z,2.7
2023-05-14T05:38:07.637Z,2.9
2023-05-14T05:39:07.913Z,2.9
2023-05-14T05:40:09.361Z,2.9
2023-05-14T05:41:08.968Z,3
2023-05-14T05:42:09.229Z,3.1
2023-05-14T05:43:09.602Z,2.9
2023-05-14T05:44:10.114Z,2.7
2023-05-14T05:45:11.158Z,2.8
2023-05-14T05:46:11.863Z,9
2023-05-14T05:47:11.254Z,3.8
2023-05-14T05:48:11.872Z,3.5
2023-05-14T05:49:12.181Z,2.9
2023-05-14T05:50:12.912Z,3
2023-05-14T05:51:13.127Z,3.1
2023-05-14T05:52:13.662Z,2.9
2023-05-14T05:53:14.040Z,2.8
2023-05-14T05:54:14.373Z,3
2023-05-14T05:55:15.003Z,2.7
2023-05-14T05:56:15.304Z,3
2023-05-14T05:57:15.465Z,2.7
2023-05-14T05:58:16.131Z,4.1
2023-05-14T05:59:16.657Z,3.9
2023-05-14T06:00:17.695Z,3
2023-05-14T06:01:17.587Z,2.6
2023-05-14T06:02:18.871Z,2.6
2023-05-14T06:03:18.370Z,2.8
2023-05-14T06:04:18.738Z,3
2023-05-14T06:05:19.427Z,2.8
2023-05-14T06:06:19.671Z,2.7
2023-05-14T06:07:20.081Z,2.8
2023-05-14T06:08:20.509Z,2.9
2023-05-14T06:09:20.933Z,2.8
2023-05-14T06:10:21.527Z,2.8
2023-05-14T06:11:21.762Z,2.7
2023-05-14T06:12:22.173Z,2.7
2023-05-14T06:13:22.750Z,2.5
2023-05-14T06:14:23.198Z,3.1
2023-05-14T06:15:23.820Z,3.2
2023-05-14T06:16:24.106Z,2.7
2023-05-14T06:17:25.259Z,2.6
2023-05-14T06:18:25.432Z,3.1
2023-05-14T06:19:25.498Z,2.8
2023-05-14T06:20:26.275Z,2.9
2023-05-14T06:21:26.215Z,2.5
2023-05-14T06:22:26.744Z,2.6
2023-05-14T06:23:27.204Z,2.9
2023-05-14T06:24:27.510Z,2.9
2023-05-14T06:25:28.395Z,2.7
2023-05-14T06:26:28.522Z,2.4
2023-05-14T06:27:28.847Z,2.4
2023-05-14T06:28:29.461Z,2.6
2023-05-14T06:29:29.984Z,2.7
2023-05-14T06:30:30.391Z,2.9
2023-05-14T06:31:31.050Z,2.5
2023-05-14T06:32:31.405Z,2.5
2023-05-14T06:33:31.616Z,2.7
2023-05-14T06:34:32.450Z,2.7
2023-05-14T06:35:33.066Z,2.4
2023-05-14T06:36:32.967Z,2.3
2023-05-14T06:37:33.514Z,2.4
2023-05-14T06:38:34.022Z,2.6
2023-05-14T06:39:34.325Z,2.9
2023-05-14T06:40:34.843Z,3
2023-05-14T06:41:35.262Z,2.8
2023-05-14T06:42:35.620Z,2.5
2023-05-14T06:43:36.191Z,2.8
2023-05-14T06:44:36.824Z,2.6
2023-05-14T06:45:37.129Z,2.7
2023-05-14T06:46:37.548Z,2.5
2023-05-14T06:47:38.069Z,2.6
2023-05-14T06:48:38.599Z,2.4
2023-05-14T06:49:39.314Z,3.4
2023-05-14T06:50:40.045Z,2.9
2023-05-14T06:51:39.973Z,2.7
2023-05-14T06:52:40.252Z,2.9
2023-05-14T06:53:41.424Z,3.2
2023-05-14T06:54:41.127Z,3
2023-05-14T06:55:41.798Z,2.6
2023-05-14T06:56:42.322Z,2.5
2023-05-14T06:57:42.558Z,2.5
2023-05-14T06:58:43.056Z,2.7
2023-05-14T06:59:43.681Z,2.8
2023-05-14T07:00:44.000Z,2.6
2023-05-14T07:01:44.416Z,2.3
2023-05-14T07:02:44.967Z,2.5
2023-05-14T07:03:45.238Z,2.8
2023-05-14T07:04:45.943Z,2.7
2023-05-14T07:05:46.389Z,2.5
2023-05-14T07:06:46.693Z,2.7
2023-05-14T07:07:47.105Z,2.7
2023-05-14T07:08:47.631Z,2.6
2023-05-14T07:09:48.080Z,2.7
2023-05-14T07:10:48.670Z,2.9
2023-05-14T07:11:49.176Z,2.5
2023-05-14T07:12:49.829Z,2.5
2023-05-14T07:13:50.017Z,2.3
2023-05-14T07:14:50.446Z,2.7
2023-05-14T07:15:51.567Z,2.5
2023-05-14T07:16:51.431Z,2.5
2023-05-14T07:17:51.914Z,2.7
2023-05-14T07:18:52.729Z,2.5
2023-05-14T07:19:52.835Z,2.5
2023-05-14T07:20:53.327Z,2.4
2023-05-14T07:21:53.754Z,2.3
2023-05-14T07:22:54.081Z,2.4
2023-05-14T07:23:54.427Z,2.5
2023-05-14T07:24:55.016Z,2.4
2023-05-14T07:25:55.627Z,2.4
2023-05-14T07:26:56.060Z,2.5
2023-05-14T07:27:56.450Z,2.5
2023-05-14T07:28:56.974Z,2.4
2023-05-14T07:29:57.410Z,2.3
2023-05-14T07:30:57.717Z,2.4
2023-05-14T07:31:58.018Z,2.8
2023-05-14T07:32:58.473Z,2.4
2023-05-14T07:33:58.958Z,2.2
2023-05-14T07:34:59.474Z,2.6
2023-05-14T07:35:59.730Z,2.3
2023-05-14T07:36:59.994Z,2.2
2023-05-14T07:38:00.831Z,2.5
2023-05-14T07:39:01.156Z,2.4
2023-05-14T07:40:01.265Z,2.2
2023-05-14T07:41:01.616Z,2.5
2023-05-14T07:42:01.919Z,2.7
2023-05-14T07:43:02.382Z,2.2
2023-05-14T07:44:02.718Z,2.4
2023-05-14T07:45:03.523Z,2.3
2023-05-14T07:46:03.533Z,2.1
2023-05-14T07:47:04.477Z,2.1
2023-05-14T07:48:04.681Z,2.4
2023-05-14T07:49:04.695Z,2.3
2023-05-14T07:50:05.723Z,2.3
2023-05-14T07:51:05.512Z,2.2
2023-05-14T07:52:06.061Z,2.1
2023-05-14T07:53:06.049Z,2.2
2023-05-14T07:54:06.773Z,2.1
2023-05-14T07:55:07.794Z,7.1
2023-05-14T07:56:08.428Z,2.1
2023-05-14T07:57:07.512Z,2.2
2023-05-14T07:58:08.120Z,2
2023-05-14T07:59:08.338Z,2.3
2023-05-14T08:00:09.339Z,2.1
2023-05-14T08:01:09.284Z,2.6
2023-05-14T08:02:09.425Z,2.4
2023-05-14T08:03:09.830Z,2.4
2023-05-14T08:04:10.487Z,2.3
2023-05-14T08:05:10.526Z,2.3
2023-05-14T08:06:10.997Z,2.1
2023-05-14T08:07:11.466Z,2.2
2023-05-14T08:08:11.771Z,2.4
2023-05-14T08:09:12.100Z,2.2
2023-05-14T08:10:12.752Z,2
2023-05-14T08:11:12.878Z,2.4
2023-05-14T08:12:13.356Z,2.2
2023-05-14T08:13:13.756Z,2.6
2023-05-14T08:14:14.007Z,2.4
2023-05-14T08:15:14.481Z,2.3
2023-05-14T08:16:15.601Z,2.6
2023-05-14T08:17:15.230Z,2
2023-05-14T08:18:15.481Z,2.2
2023-05-14T08:19:16.973Z,2.2
2023-05-14T08:20:16.479Z,2.3
2023-05-14T08:21:16.779Z,2.3
2023-05-14T08:22:17.202Z,2.5
2023-05-14T08:23:17.612Z,2.4
2023-05-14T08:24:19.064Z,2.2
2023-05-14T08:25:18.552Z,2.2
2023-05-14T08:26:18.665Z,2.4
2023-05-14T08:27:19.285Z,2.1
2023-05-14T08:28:19.485Z,2.3
2023-05-14T08:29:19.708Z,3.1
2023-05-14T08:30:20.541Z,2.2
2023-05-14T08:31:20.521Z,2.5
2023-05-14T08:32:23.711Z,2.6
2023-05-14T08:33:21.883Z,2.4
2023-05-14T08:34:22.290Z,2.5
2023-05-14T08:35:22.623Z,2.4
2023-05-14T08:36:23.035Z,2.6
2023-05-14T08:37:23.193Z,2.4
2023-05-14T08:38:23.648Z,2.2
2023-05-14T08:39:24.059Z,2.3
2023-05-14T08:40:24.521Z,2.2
2023-05-14T08:41:25.717Z,2.6
2023-05-14T08:42:26.575Z,2.5
2023-05-14T08:44:36.609Z,2.4
2023-05-14T08:45:31.045Z,2.8
2023-05-14T08:46:32.719Z,2.4
2023-05-14T08:47:31.595Z,2.6
2023-05-14T08:48:33.317Z,3.5
2023-05-14T08:50:31.722Z,3.8
2023-05-14T08:51:31.716Z,2.6
2023-05-14T08:52:32.652Z,2.3
2023-05-14T08:53:32.467Z,2.7
2023-05-14T08:54:32.751Z,3.6
2023-05-14T08:55:33.737Z,2.5
2023-05-14T08:56:33.743Z,2.1
2023-05-14T08:57:34.723Z,2.3
2023-05-14T08:58:34.227Z,2.4
2023-05-14T08:59:34.537Z,2.2
2023-05-14T09:00:35.721Z,2.3
2023-05-14T09:01:35.584Z,5.3
2023-05-14T09:02:37.687Z,2.4
2023-05-14T09:03:37.105Z,2.1
2023-05-14T09:04:37.251Z,2.1
2023-05-14T09:05:37.636Z,1.9
2023-05-14T09:06:38.283Z,2.1
2023-05-14T09:07:37.873Z,4
2023-05-14T09:08:38.205Z,2.6
2023-05-14T09:09:38.799Z,2.6
2023-05-14T09:10:38.931Z,2.5
2023-05-14T09:11:42.867Z,2.1
2023-05-14T09:12:40.360Z,2
2023-05-14T09:13:40.771Z,2.3
2023-05-14T09:14:41.498Z,3.9
2023-05-14T09:15:41.510Z,3
2023-05-14T09:16:47.328Z,2.4
2023-05-14T09:17:45.862Z,2.2
2023-05-14T09:18:45.986Z,2
2023-05-14T09:19:47.347Z,2.3
2023-05-14T09:20:47.580Z,2
2023-05-14T09:21:48.106Z,2.1
2023-05-14T09:22:47.284Z,2
2023-05-14T09:23:47.396Z,1.9
2023-05-14T09:25:48.182Z,2.1
2023-05-14T09:26:51.418Z,1.9
2023-05-14T09:27:50.658Z,2.1
2023-05-14T09:28:49.202Z,2.3
2023-05-14T09:29:49.673Z,2.2
2023-05-14T09:30:52.970Z,2.1
2023-05-14T09:31:51.384Z,2
2023-05-14T09:32:54.506Z,2.1
2023-05-14T09:33:52.732Z,2.2
2023-05-14T09:34:52.284Z,5.1
2023-05-14T09:35:56.433Z,4.3
2023-05-14T09:36:57.310Z,6.2
2023-05-14T09:37:55.850Z,2.6
2023-05-14T09:38:58.607Z,2.2
2023-05-14T09:39:56.198Z,2.5
2023-05-14T09:40:57.234Z,2.2
2023-05-14T09:41:57.260Z,2.2
2023-05-14T09:42:57.623Z,2.5
2023-05-14T09:43:58.064Z,2.4
2023-05-14T09:44:58.395Z,2.7
2023-05-14T09:45:58.644Z,2.2
2023-05-14T09:46:59.294Z,2.4
2023-05-14T09:48:00.690Z,2.5
2023-05-14T09:48:59.865Z,2.6
2023-05-14T09:50:00.212Z,2.9
2023-05-14T09:51:02.713Z,2.8
2023-05-14T09:52:01.403Z,2.6
2023-05-14T09:53:01.926Z,2.4
2023-05-14T09:54:03.967Z,2.1
2023-05-14T09:55:02.672Z,2.2
2023-05-14T09:56:02.860Z,2.6
2023-05-14T09:57:03.396Z,2.2
2023-05-14T09:58:04.199Z,2.3
2023-05-14T09:59:04.533Z,2.5
2023-05-14T10:00:04.954Z,2.6
2023-05-14T10:01:06.094Z,2.4
2023-05-14T10:02:08.943Z,2.5
2023-05-14T10:03:07.812Z,2.2
2023-05-14T10:04:09.586Z,2.5
2023-05-14T10:05:07.996Z,2.4
2023-05-14T10:06:08.257Z,2.4
2023-05-14T10:07:08.530Z,2.3
2023-05-14T10:09:13.975Z,2.5
2023-05-14T10:11:18.937Z,2
2023-05-14T10:12:22.012Z,2.3
2023-05-14T10:13:23.790Z,2.2
2023-05-14T10:14:29.423Z,2.2
2023-05-14T10:17:32.136Z,2.8
2023-05-14T10:19:37.370Z,2.2
2023-05-14T10:20:37.735Z,2.1
2023-05-14T10:21:36.849Z,2.3
2023-05-14T10:22:35.821Z,2.5
2023-05-14T10:23:37.253Z,2.1
2023-05-14T10:24:37.380Z,2.1
2023-05-14T10:25:37.410Z,2.3
2023-05-14T10:26:39.661Z,2.1
2023-05-14T10:27:37.814Z,2.2
2023-05-14T10:28:38.195Z,1.9
2023-05-14T10:29:38.674Z,2.2
2023-05-14T10:32:44.660Z,3.1
2023-05-14T10:34:48.487Z,2.2
2023-05-14T10:36:52.163Z,2.3
2023-05-14T10:37:52.599Z,2
2023-05-14T10:38:56.195Z,1.9
2023-05-14T10:39:58.955Z,2.4
2023-05-14T10:40:57.731Z,2.4
2023-05-14T10:41:56.933Z,2
2023-05-14T10:42:59.762Z,1.9
2023-05-14T10:43:59.174Z,2.1
2023-05-14T10:45:02.590Z,1.9
2023-05-14T10:46:01.189Z,2
2023-05-14T10:47:00.487Z,2.1
2023-05-14T10:48:01.076Z,1.9
2023-05-14T10:49:01.317Z,2
2023-05-14T10:50:05.157Z,2
2023-05-14T10:51:02.805Z,1.8
2023-05-14T10:52:03.037Z,2.1
2023-05-14T10:53:03.350Z,2.3
2023-05-14T10:54:03.959Z,2
2023-05-14T10:55:06.633Z,2.1
2023-05-14T10:56:09.633Z,2
2023-05-14T10:57:11.392Z,2.2
2023-05-14T10:58:11.055Z,2.1
2023-05-14T10:59:10.441Z,3.1
2023-05-14T11:00:11.282Z,4
2023-05-14T11:01:12.201Z,2.2
2023-05-14T11:03:13.245Z,3.1
2023-05-14T11:05:17.421Z,2.1
2023-05-14T11:06:17.094Z,2.2
2023-05-14T11:07:19.511Z,2.1
2023-05-14T11:08:19.013Z,2.2
2023-05-14T11:09:20.895Z,2
2023-05-14T11:10:22.493Z,2.3
2023-05-14T11:11:20.590Z,2.3
2023-05-14T11:12:21.796Z,2.3
2023-05-14T11:13:21.753Z,2.1
2023-05-14T11:14:22.935Z,2.1
2023-05-14T11:15:23.482Z,2.4
2023-05-14T11:16:23.728Z,2.2
2023-05-14T11:17:23.273Z,2
2023-05-14T11:19:26.680Z,2
2023-05-14T11:20:27.057Z,2
2023-05-14T11:21:28.005Z,2
2023-05-14T11:22:27.853Z,2.3
2023-05-14T11:23:28.827Z,2.3
2023-05-14T11:24:28.536Z,2.2
2023-05-14T11:25:28.855Z,2.3
2023-05-14T11:26:29.497Z,2.2
2023-05-14T11:27:30.083Z,2.2
2023-05-14T11:28:30.507Z,2.3
2023-05-14T11:29:30.611Z,2.3
2023-05-14T11:30:31.753Z,2.1
2023-05-14T11:31:31.696Z,2.4
2023-05-14T11:32:35.369Z,1.9
2023-05-14T11:33:32.661Z,2.1
2023-05-14T11:34:34.136Z,2.2
2023-05-14T11:35:33.575Z,2.1
2023-05-14T11:36:36.833Z,2.2
2023-05-14T11:37:34.367Z,1.9
2023-05-14T11:38:34.885Z,2.5
2023-05-14T11:39:36.318Z,2.3
2023-05-14T11:40:35.701Z,2.2
2023-05-14T11:41:35.973Z,2.1
2023-05-14T11:42:37.463Z,2.2
2023-05-14T11:43:36.853Z,2.3
2023-05-14T11:44:38.454Z,2.2
2023-05-14T11:45:37.741Z,1.8
2023-05-14T11:46:38.028Z,2
2023-05-14T11:47:38.408Z,2
2023-05-14T11:48:38.906Z,2.1
2023-05-14T11:49:39.356Z,2
2023-05-14T11:50:39.666Z,2.1
2023-05-14T11:51:40.300Z,2.1
2023-05-14T11:52:41.137Z,2.1
2023-05-14T11:53:41.015Z,1.9
2023-05-14T11:54:43.178Z,2
2023-05-14T11:55:41.846Z,2.3
2023-05-14T11:56:42.154Z,1.7
2023-05-14T11:57:43.396Z,2
2023-05-14T11:59:45.444Z,2
2023-05-14T12:00:46.281Z,2.1
2023-05-14T12:01:46.201Z,2.2
2023-05-14T12:02:48.731Z,2
2023-05-14T12:03:46.895Z,1.8
2023-05-14T12:04:51.282Z,2.2
2023-05-14T12:06:53.805Z,5.6
2023-05-14T12:07:54.207Z,1.9
2023-05-14T12:08:56.409Z,2.2
2023-05-14T12:09:55.142Z,2
2023-05-14T12:10:56.227Z,1.9
2023-05-14T12:11:55.604Z,2
2023-05-14T12:12:56.284Z,2.1
2023-05-14T12:13:57.013Z,2
2023-05-14T12:15:00.188Z,2.4
2023-05-14T12:15:59.713Z,3.7
2023-05-14T12:16:58.071Z,2.7
2023-05-14T12:17:58.480Z,2.5
2023-05-14T12:19:02.114Z,2.3
2023-05-14T12:20:01.061Z,2.3
2023-05-14T12:21:04.176Z,2.1
2023-05-14T12:22:02.300Z,2.1
2023-05-14T12:23:01.834Z,2
2023-05-14T12:24:02.441Z,2.3
2023-05-14T12:25:02.713Z,2.2
2023-05-14T12:26:07.262Z,2.1
2023-05-14T12:27:05.287Z,2.4
2023-05-14T12:29:07.255Z,2.2
2023-05-14T12:31:09.101Z,2.3
2023-05-14T12:32:09.937Z,2.2
2023-05-14T12:33:10.264Z,2
2023-05-14T12:34:10.346Z,2.1
2023-05-14T12:35:10.707Z,1.9
2023-05-14T12:36:21.183Z,2.2
2023-05-14T12:37:14.577Z,2.4
2023-05-14T12:38:14.787Z,2.1
2023-05-14T12:39:15.198Z,2.2
2023-05-14T12:40:15.835Z,2.2
2023-05-14T12:41:16.214Z,2.1
2023-05-14T12:42:16.386Z,2
2023-05-14T12:43:16.970Z,2.3
2023-05-14T12:44:17.856Z,3.1
2023-05-14T12:45:18.009Z,2.3
2023-05-14T12:46:18.337Z,2.3
2023-05-14T12:47:19.160Z,2.1
2023-05-14T12:48:19.020Z,1.9
2023-05-14T12:49:19.775Z,1.9
2023-05-14T12:50:20.293Z,2.8
2023-05-14T12:51:20.711Z,2.1
2023-05-14T12:52:35.948Z,2.3
2023-05-14T12:53:24.750Z,2.3
2023-05-14T12:54:24.972Z,2.7
2023-05-14T12:55:25.506Z,2.3
2023-05-14T12:56:25.923Z,2.3
2023-05-14T12:57:26.901Z,2.4
2023-05-14T12:58:26.897Z,2.8
2023-05-14T12:59:27.111Z,2.3
2023-05-14T13:00:27.516Z,2.2
2023-05-14T13:01:28.018Z,2.5
2023-05-14T13:02:28.406Z,2.1
2023-05-14T13:03:28.875Z,2.4
2023-05-14T13:04:29.337Z,2.5
2023-05-14T13:05:29.599Z,3.2
2023-05-14T13:06:30.017Z,3.3
2023-05-14T13:07:31.055Z,2.2
2023-05-14T13:08:30.746Z,2.4
2023-05-14T13:09:31.169Z,2.5
2023-05-14T13:10:31.693Z,2.3
2023-05-14T13:11:31.996Z,2.5
2023-05-14T13:12:32.442Z,2.2
2023-05-14T13:13:32.961Z,2.3
2023-05-14T13:14:33.194Z,2.2
2023-05-14T13:15:33.884Z,2.3
2023-05-14T13:16:34.192Z,2.4
2023-05-14T13:17:34.584Z,2.2
2023-05-14T13:18:35.001Z,2.9
2023-05-14T13:19:35.461Z,2.6
2023-05-14T13:20:36.223Z,2.1
2023-05-14T13:21:36.157Z,1.9
2023-05-14T13:22:37.009Z,2.3
2023-05-14T13:23:36.988Z,2.2
2023-05-14T13:24:37.451Z,2.1
2023-05-14T13:25:37.926Z,2.4
2023-05-14T13:26:38.223Z,2.3
2023-05-14T13:27:38.575Z,2.1
2023-05-14T13:28:38.988Z,2.1
2023-05-14T13:29:39.403Z,2.1
2023-05-14T13:30:39.862Z,2.1
2023-05-14T13:31:40.232Z,2.1
2023-05-14T13:32:42.274Z,2
2023-05-14T13:33:43.516Z,2
2023-05-14T13:34:41.468Z,2.2
2023-05-14T13:35:41.800Z,2.4
2023-05-14T13:36:42.608Z,2.5
2023-05-14T13:37:45.218Z,2.2
2023-05-14T13:38:42.929Z,2.3
2023-05-14T13:39:43.447Z,2
2023-05-14T13:40:43.863Z,2.1
2023-05-14T13:41:44.188Z,2.2
2023-05-14T13:42:44.725Z,2.5
2023-05-14T13:43:44.910Z,2.2
2023-05-14T13:44:45.426Z,2.3
2023-05-14T13:45:46.159Z,2.1
2023-05-14T13:46:46.216Z,2.3
2023-05-14T13:47:46.980Z,2.4
2023-05-14T13:48:46.999Z,2.4
2023-05-14T13:49:47.399Z,2.2
2023-05-14T13:50:48.031Z,1.9
2023-05-14T13:51:48.290Z,2.2
2023-05-14T13:52:48.508Z,2.2
2023-05-14T13:53:48.980Z,2.5
2023-05-14T13:54:49.493Z,2.7
2023-05-14T13:55:50.895Z,2.1
2023-05-14T13:56:50.120Z,2.4
2023-05-14T13:57:50.641Z,2.3
2023-05-14T13:58:50.956Z,2.1
2023-05-14T13:59:51.362Z,2.2
2023-05-14T14:00:52.420Z,2.3
2023-05-14T14:01:52.338Z,2.1
2023-05-14T14:02:52.651Z,2.3
2023-05-14T14:03:52.931Z,2.5
2023-05-14T14:04:53.494Z,2
2023-05-14T14:05:53.834Z,2.2
2023-05-14T14:06:54.194Z,2.8
2023-05-14T14:08:01.077Z,2.5
2023-05-14T14:08:55.310Z,2.5
2023-05-14T14:09:55.626Z,2.4
2023-05-14T14:10:56.154Z,2.3
2023-05-14T14:11:56.717Z,2.1
2023-05-14T14:12:56.980Z,2.1
2023-05-14T14:13:57.356Z,2.2
2023-05-14T14:14:57.717Z,2.2
2023-05-14T14:15:58.348Z,2.3
2023-05-14T14:16:58.560Z,2.2
2023-05-14T14:17:59.061Z,2.1
2023-05-14T14:18:59.563Z,2.1
2023-05-14T14:20:00.003Z,2.2
2023-05-14T14:21:00.378Z,2.1
2023-05-14T14:22:00.725Z,2.2
2023-05-14T14:23:01.154Z,2.7
2023-05-14T14:24:02.199Z,5.6
2023-05-14T14:25:02.342Z,2.3
2023-05-14T14:26:02.305Z,2.3
2023-05-14T14:27:02.927Z,2.3
2023-05-14T14:28:03.116Z,2.3
2023-05-14T14:29:03.555Z,2.1
2023-05-14T14:31:05.817Z,2.8
2023-05-14T14:32:06.855Z,2.2